Home > Products > Valid Products > TAF

000
FTUS41 KBTV 261132
TAFSLK
TAF
KSLK 261132Z 2612/2712 23010KT P6SM VCSH OVC050
      TEMPO 2612/2614 OVC018
     FM261400 25010G20KT P6SM SCT020 BKN045
     FM270000 24004KT P6SM FEW045=



000
FTUS41 KBTV 261132
TAFBTV
TAF
KBTV 261132Z 2612/2712 19008KT P6SM VCSH BKN045
     FM261400 22012G22KT P6SM SCT050
     FM270000 19008KT P6SM BKN100=



000
FTUS41 KBTV 261132
TAFMSS
TAF
KMSS 261132Z 2612/2712 22010G20KT P6SM BKN100
     FM261400 23014G24KT P6SM SCT050
     FM270000 24008KT P6SM FEW050=



000
FTUS41 KBTV 261132
TAFMPV
TAF
KMPV 261132Z 2612/2712 21010KT P6SM VCSH BKN050
     FM261400 25011G20KT P6SM SCT050
     FM270000 VRB03KT P6SM BKN050=



000
FTUS41 KBTV 260520
TAFBTV
TAF
KBTV 260520Z 2606/2706 19008KT P6SM VCSH OVC080
     FM261400 22012G22KT P6SM SCT050=



000
FTUS41 KBTV 260520
TAFMSS
TAF
KMSS 260520Z 2606/2706 20009KT P6SM VCSH BKN050 WS020/25040KT
     FM261000 23012KT P6SM SCT050
     FM261400 23014G24KT P6SM SCT050
     FM270000 24008KT P6SM FEW050=



000
FTUS41 KBTV 260520
TAFSLK
TAF
KSLK 260520Z 2606/2706 23010KT P6SM VCSH OVC050
      TEMPO 2607/2611 4SM -SHRA BR OVC018
     FM261400 25011G20KT P6SM SCT040
     FM270000 24004KT P6SM FEW045=



000
FTUS41 KBTV 260520
TAFMSS
TAF
KMSS 260520Z 2606/2706 20009KT P6SM VCSH BKN050 WS020/25040KT
     FM261000 23012KT P6SM SCT050
     FM261400 23014G24KT P6SM SCT050
     FM270000 24008KT P6SM FEW050=



000
FTUS41 KBTV 260520
TAFMPV
TAF
KMPV 260520Z 2606/2706 18006KT P6SM VCSH OVC080
      TEMPO 2606/2608 4SM BR
     FM260900 21010KT P6SM SCT050
     FM261500 25011G19KT P6SM SCT050=



000
FTUS41 KBTV 260520
TAFSLK
TAF
KSLK 260520Z 2606/2706 23010KT P6SM VCSH OVC050
      TEMPO 2607/2611 4SM -SHRA BR OVC018
     FM261400 25011G20KT P6SM SCT040
     FM270000 24004KT P6SM FEW045=



000
FTUS41 KBTV 260520
TAFBTV
TAF
KBTV 260520Z 2606/2706 19008KT P6SM VCSH OVC080
     FM261400 22012G22KT P6SM SCT050=



000
FTUS41 KBTV 260520
TAFMPV
TAF
KMPV 260520Z 2606/2706 18006KT P6SM VCSH OVC080
      TEMPO 2606/2608 4SM BR
     FM260900 21010KT P6SM SCT050
     FM261500 25011G19KT P6SM SCT050=



000
FTUS41 KBTV 260301 AAC
TAFMSS
TAF AMD
KMSS 260301Z 2603/2624 13004KT P6SM VCSH BKN050 OVC100
      WS020/25040KT
      TEMPO 2603/2604 2SM -RA BR BKN002
     FM260500 21009KT P6SM VCSH BKN050 WS020/25040KT
     FM261000 23012KT P6SM SCT050
     FM261600 23014G24KT P6SM SCT050=



000
FTUS41 KBTV 260227 AAB
TAFMSS
TAF AMD
KMSS 260227Z 2602/2624 08004KT 3SM -SHRA OVC002
     FM260300 13004KT P6SM VCSH BKN050 OVC100 WS020/25040KT
      TEMPO 2603/2604 BKN004
     FM260500 21009KT P6SM VCSH BKN050 WS020/25040KT
     FM261000 23012KT P6SM SCT050
     FM261600 23014G24KT P6SM SCT050=



000
FTUS41 KBTV 260116 AAA
TAFMSS
TAF AMD
KMSS 260116Z 2601/2624 08004KT 6SM -SHRA BR OVC070
      TEMPO 2601/2603 3SM -RA BR BKN004
     FM260300 13004KT P6SM VCSH BKN050 OVC100 WS020/25040KT
     FM260500 21009KT P6SM VCSH BKN050 WS020/25040KT
     FM261000 23012KT P6SM SCT050
     FM261600 23014G24KT P6SM SCT050=



000
FTUS41 KBTV 260116 AAA
TAFMSS
TAF AMD
KMSS 260116Z 2601/2624 08004KT 6SM -SHRA BR OVC070
      TEMPO 2601/2603 3SM -RA BR BKN004
     FM260300 13004KT P6SM VCSH BKN050 OVC100 WS020/25040KT
     FM260500 21009KT P6SM VCSH BKN050 WS020/25040KT
     FM261000 23012KT P6SM SCT050
     FM261600 23014G24KT P6SM SCT050=



000
FTUS41 KBTV 260116 AAA
TAFMPV
TAF AMD
KMPV 260116Z 2601/2624 18006KT P6SM VCSH OVC080
      TEMPO 2601/2605 5SM -SHRA BR
     FM260900 21010KT P6SM SCT050
     FM261500 25011G19KT P6SM SCT050=



000
FTUS41 KBTV 260116 AAA
TAFMPV
TAF AMD
KMPV 260116Z 2601/2624 18006KT P6SM VCSH OVC080
      TEMPO 2601/2605 5SM -SHRA BR
     FM260900 21010KT P6SM SCT050
     FM261500 25011G19KT P6SM SCT050=



000
FTUS41 KBTV 252321
TAFMSS
TAF
KMSS 252321Z 2600/2624 08004KT 6SM -SHRA BR OVC070
      TEMPO 2600/2601 3SM -RA BR BKN004
     FM260300 13004KT P6SM VCSH BKN050 OVC100 WS020/25040KT
     FM260500 21009KT P6SM VCSH BKN050 WS020/25040KT
     FM261000 23012KT P6SM SCT050
     FM261600 23014G24KT P6SM SCT050=



000
FTUS41 KBTV 252321
TAFSLK
TAF
KSLK 252321Z 2600/2624 23005KT P6SM VCSH OVC060
     FM260700 23010KT P6SM VCSH OVC020
     FM261400 25011G20KT P6SM SCT035=



000
FTUS41 KBTV 252321
TAFBTV
TAF
KBTV 252321Z 2600/2624 18008KT P6SM VCSH OVC080
     FM260900 18012KT P6SM SCT050
     FM261400 22012G18KT P6SM SCT050=



000
FTUS41 KBTV 252321
TAFMPV
TAF
KMPV 252321Z 2600/2624 18006KT P6SM VCSH OVC080
     FM260900 21010KT P6SM SCT050
     FM261500 25011G19KT P6SM SCT050=



000
FTUS41 KBTV 251720
TAFBTV
TAF
KBTV 251720Z 2518/2618 18007KT P6SM -SHRA SCT045 OVC080
     FM260600 20012G20KT P6SM SCT030 BKN035
     FM261300 20013G25KT P6SM FEW035 SCT050 BKN120=



000
FTUS41 KBTV 251720
TAFSLK
TAF
KSLK 251720Z 2518/2618 22007KT P6SM -SHRA SCT050 BKN070 OVC090
     FM260000 21004KT P6SM -SHRA SCT035 OVC050
     FM260500 23010KT 6SM BR VCSH SCT025 BKN040 WS015/24040KT
     FM261100 23012G20KT P6SM SCT030 BKN040 OVC080=



000
FTUS41 KBTV 251720
TAFMPV
TAF
KMPV 251720Z 2518/2618 22006KT P6SM -SHRA BKN045 OVC070
     FM260600 20010KT 5SM BR VCSH BKN030 OVC035 WS020/24035KT
     FM261000 23009KT P6SM SCT030 BKN040
     FM261300 25010G18KT P6SM SCT050 BKN100=



000
FTUS41 KBTV 251720
TAFMSS
TAF
KMSS 251720Z 2518/2618 21006KT P6SM -SHRA SCT045 OVC060
     FM260000 20008KT P6SM -SHRA SCT025 OVC040
     FM260400 23012KT P6SM VCSH SCT030 OVC035 WS020/24040KT
     FM261100 23013G23KT P6SM SCT050 BKN150=



000
FTUS41 KBTV 251352 AAA
TAFBTV
TAF AMD
KBTV 251352Z 2514/2612 19009G18KT P6SM VCSH OVC080
     FM251700 19009KT P6SM -SHRA OVC050
     FM260000 17009KT P6SM -SHRA OVC050
     FM260400 19014G20KT P6SM OVC060=



000
FTUS41 KBTV 251352 AAA
TAFBTV
TAF AMD
KBTV 251352Z 2514/2612 19009G18KT P6SM VCSH OVC080
     FM251700 19009KT P6SM -SHRA OVC050
     FM260000 17009KT P6SM -SHRA OVC050
     FM260400 19014G20KT P6SM OVC060=



000
FTUS41 KBTV 251136
TAFBTV
TAF
KBTV 251136Z 2512/2612 19009KT P6SM OVC080
     FM251700 19009KT P6SM -SHRA OVC050
     FM260000 17009KT P6SM -SHRA OVC050
     FM260400 19014G20KT P6SM OVC060=



000
FTUS41 KBTV 251136
TAFSLK
TAF
KSLK 251136Z 2512/2612 22006KT P6SM OVC070
     FM251500 22007KT P6SM -SHRA OVC050
     FM260000 22007KT 6SM -SHRA OVC050=



000
FTUS41 KBTV 251136
TAFMPV
TAF
KMPV 251136Z 2512/2612 VRB03KT P6SM OVC080
     FM251700 19008KT P6SM -SHRA OVC050
     FM260000 17005KT P6SM -SHRA OVC050
     FM260500 21009KT P6SM OVC060=



000
FTUS41 KBTV 251136
TAFMSS
TAF
KMSS 251136Z 2512/2612 22009KT P6SM OVC070
     FM251500 22009KT 6SM -SHRA OVC050
     FM252100 16008KT P6SM OVC080
     FM260000 18009KT 6SM -SHRA OVC050
     FM260500 22012KT P6SM OVC050=



000
FTUS41 KBTV 250527
TAFMSS
TAF
KMSS 250527Z 2506/2606 23007KT P6SM OVC250
     FM251200 22008KT P6SM OVC070
     FM251500 21008KT 6SM -SHRA OVC050
     FM252100 16008KT P6SM OVC080
     FM260000 18009KT 6SM -SHRA OVC050=



000
FTUS41 KBTV 250527
TAFSLK
TAF
KSLK 250527Z 2506/2606 VRB03KT P6SM OVC250
     FM251200 22006KT P6SM OVC070
     FM251500 22007KT P6SM -SHRA OVC050
     FM260000 22007KT 6SM -SHRA OVC050=



000
FTUS41 KBTV 250527
TAFBTV
TAF
KBTV 250527Z 2506/2606 17006KT P6SM OVC250
     FM251200 19009KT P6SM OVC080
     FM251700 19009KT P6SM -SHRA OVC050
     FM260000 17009KT P6SM -SHRA OVC050=



000
FTUS41 KBTV 250527
TAFMPV
TAF
KMPV 250527Z 2506/2606 22005KT P6SM OVC250
     FM251200 VRB03KT P6SM OVC070
     FM251700 19008KT P6SM -SHRA OVC050
     FM260000 17005KT P6SM OVC050=



000
FTUS41 KBTV 250527
TAFMSS
TAF
KMSS 250527Z 2506/2606 23007KT P6SM OVC250
     FM251200 22008KT P6SM OVC070
     FM251500 21008KT 6SM -SHRA OVC050
     FM252100 16008KT P6SM OVC080
     FM260000 18009KT 6SM -SHRA OVC050=



000
FTUS41 KBTV 250527
TAFSLK
TAF
KSLK 250527Z 2506/2606 VRB03KT P6SM OVC250
     FM251200 22006KT P6SM OVC070
     FM251500 22007KT P6SM -SHRA OVC050
     FM260000 22007KT 6SM -SHRA OVC050=



000
FTUS41 KBTV 250340 AAA
TAFMPV
TAF AMD
KMPV 250340Z 2504/2524 25006KT P6SM SCT200
     FM251200 23004KT P6SM OVC090
     FM251800 21007KT P6SM VCSH OVC050=



000
FTUS41 KBTV 242327
TAFMPV
TAF
KMPV 242327Z 2500/2524 25008KT P6SM FEW200
     FM250300 24004KT P6SM SCT200
     FM251200 23004KT P6SM OVC090
     FM251800 21007KT P6SM VCSH OVC050=



000
FTUS41 KBTV 242327
TAFBTV
TAF
KBTV 242327Z 2500/2524 26008KT P6SM SCT150 SCT200
     FM250300 19007KT P6SM SCT200
     FM251200 19009KT P6SM OVC060
     FM251700 16007KT P6SM VCSH OVC050=



000
FTUS41 KBTV 242327
TAFMSS
TAF
KMSS 242327Z 2500/2524 23014G24KT P6SM SCT200
     FM250200 23010KT P6SM FEW200
     FM251200 22007KT P6SM OVC090
     FM251400 21007KT 6SM -SHRA OVC060
     FM252100 15007KT 6SM -SHRA OVC050=



000
FTUS41 KBTV 242327
TAFSLK
TAF
KSLK 242327Z 2500/2524 24014G24KT P6SM SCT200
     FM250200 24006KT P6SM SCT180
     FM251200 23004KT P6SM BKN090
     FM251500 22007KT P6SM -SHRA OVC050
     FM252200 22007KT P6SM OVC080=



000
FTUS41 KBTV 242327
TAFBTV
TAF
KBTV 242327Z 2500/2524 26008KT P6SM SCT150 SCT200
     FM250300 19007KT P6SM SCT200
     FM251200 19009KT P6SM OVC060
     FM251700 16007KT P6SM VCSH OVC050=



000
FTUS41 KBTV 242327
TAFMPV
TAF
KMPV 242327Z 2500/2524 25008KT P6SM FEW200
     FM250300 24004KT P6SM SCT200
     FM251200 23004KT P6SM OVC090
     FM251800 21007KT P6SM VCSH OVC050=



000
FTUS41 KBTV 242327
TAFMSS
TAF
KMSS 242327Z 2500/2524 23014G24KT P6SM SCT200
     FM250200 23010KT P6SM FEW200
     FM251200 22007KT P6SM OVC090
     FM251400 21007KT 6SM -SHRA OVC060
     FM252100 15007KT 6SM -SHRA OVC050=



000
FTUS41 KBTV 242327
TAFSLK
TAF
KSLK 242327Z 2500/2524 24014G24KT P6SM SCT200
     FM250200 24006KT P6SM SCT180
     FM251200 23004KT P6SM BKN090
     FM251500 22007KT P6SM -SHRA OVC050
     FM252200 22007KT P6SM OVC080=



000
FTUS41 KBTV 241729 CCA
TAFBTV
TAF COR
KBTV 241729Z 2418/2518 23008G16KT P6SM FEW070 SCT120
     FM242300 21008KT P6SM FEW140 SCT250
     FM250900 18007KT P6SM SCT050 OVC080
     FM251200 18010KT P6SM VCSH BKN045 OVC070=



000
FTUS41 KBTV 241729 CCA
TAFBTV
TAF COR
KBTV 241729Z 2418/2518 23008G16KT P6SM FEW070 SCT120
     FM242300 21008KT P6SM FEW140 SCT250
     FM250900 18007KT P6SM SCT050 OVC080
     FM251200 18010KT P6SM VCSH BKN045 OVC070=



000
FTUS41 KBTV 241720
TAFMSS
TAF
KMSS 241720Z 2418/2518 23015G25KT P6SM FEW140 SCT200
     FM250200 24010KT P6SM FEW120 SCT250
     FM250600 23005KT P6SM SCT080 BKN150
     FM251000 23007KT P6SM VCSH SCT035 BKN050
     FM251400 22007KT P6SM -SHRA SCT020 BKN030 OVC035=



000
FTUS41 KBTV 241720
TAFSLK
TAF
KSLK 241720Z 2418/2518 25013G23KT P6SM FEW070 BKN120
     FM250000 23006KT P6SM FEW150 SCT250
     FM251100 22004KT P6SM VCSH SCT030 BKN040 OVC050
     FM251300 22008KT P6SM VCSH SCT020 BKN030 OVC035
     FM251500 22006KT 6SM -SHRA BR SCT020 BKN025 OVC030=



000
FTUS41 KBTV 241720
TAFMPV
TAF
KMPV 241720Z 2418/2518 28010G18KT P6SM VCSH SCT070 BKN120
     FM250100 21004KT P6SM FEW120 SCT250
     FM251200 20005KT P6SM VCSH BKN050 BKN080
     FM251500 23008KT P6SM VCSH SCT035 OVC060=



000
FTUS41 KBTV 241720
TAFBTV
TAF
KBTV 241720Z 2418/2518 19009G18KT P6SM FEW070 SCT120
     FM242300 21008KT P6SM FEW140 SCT250
     FM250900 18007KT P6SM SCT050 OVC080
     FM251200 18010KT P6SM VCSH BKN045 OVC070=



000
FTUS41 KBTV 241126
TAFMPV
TAF
KMPV 241126Z 2412/2512 27008G17KT P6SM SCT120
     FM241600 28014G25KT P6SM SCT120
     FM250000 22005KT P6SM SCT250
     FM250900 18008KT P6SM BKN150
     FM251100 18010KT P6SM SCT060 OVC100=



000
FTUS41 KBTV 241126
TAFMSS
TAF
KMSS 241126Z 2412/2512 23014G22KT P6SM SCT120
     FM241600 24016G26KT P6SM SCT120
     FM250100 22010KT P6SM SCT250
     FM250600 22008KT P6SM BKN150
     FM250900 22007KT P6SM VCSH SCT050 OVC080=



000
FTUS41 KBTV 241126
TAFSLK
TAF
KSLK 241126Z 2412/2512 23011G20KT P6SM SCT120
     FM241800 24015G25KT P6SM SCT120
     FM250000 23006KT P6SM SCT250
     FM250600 23003KT P6SM BKN150
     FM250900 24002KT P6SM VCSH SCT050 OVC080=



000
FTUS41 KBTV 241126
TAFBTV
TAF
KBTV 241126Z 2412/2512 19012G20KT P6SM SCT120
     FM241600 23015G28KT P6SM SCT120
     FM250000 20009KT P6SM SCT250
     FM250800 18008KT P6SM BKN150
     FM251100 18010KT P6SM SCT060 OVC100=



000
FTUS41 KBTV 241126
TAFMPV
TAF
KMPV 241126Z 2412/2512 27008G17KT P6SM SCT120
     FM241600 28014G25KT P6SM SCT120
     FM250000 22005KT P6SM SCT250
     FM250900 18008KT P6SM BKN150
     FM251100 18010KT P6SM SCT060 OVC100=



000
FTUS41 KBTV 241126
TAFMSS
TAF
KMSS 241126Z 2412/2512 23014G22KT P6SM SCT120
     FM241600 24016G26KT P6SM SCT120
     FM250100 22010KT P6SM SCT250
     FM250600 22008KT P6SM BKN150
     FM250900 22007KT P6SM VCSH SCT050 OVC080=



000
FTUS41 KBTV 241126
TAFSLK
TAF
KSLK 241126Z 2412/2512 23011G20KT P6SM SCT120
     FM241800 24015G25KT P6SM SCT120
     FM250000 23006KT P6SM SCT250
     FM250600 23003KT P6SM BKN150
     FM250900 24002KT P6SM VCSH SCT050 OVC080=



000
FTUS41 KBTV 241126
TAFBTV
TAF
KBTV 241126Z 2412/2512 19012G20KT P6SM SCT120
     FM241600 23015G28KT P6SM SCT120
     FM250000 20009KT P6SM SCT250
     FM250800 18008KT P6SM BKN150
     FM251100 18010KT P6SM SCT060 OVC100=



000
FTUS41 KBTV 240523
TAFSLK
TAF
KSLK 240523Z 2406/2506 22008KT P6SM BKN120 WS020/27050KT
     FM241200 24011G20KT P6SM BKN120
     FM241800 24015G25KT P6SM SCT120
     FM250000 23006KT P6SM SKC=



000
FTUS41 KBTV 240523
TAFMPV
TAF
KMPV 240523Z 2406/2506 23005KT P6SM BKN120 WS020/27045KT
     FM241200 27010G17KT P6SM SCT120
     FM241600 28014G25KT P6SM SCT120
     FM250000 22005KT P6SM SCT250=



000
FTUS41 KBTV 240523
TAFMSS
TAF
KMSS 240523Z 2406/2506 22012G20KT P6SM BKN120 WS020/26050KT
     FM241200 23014G22KT P6SM SCT120
     FM241600 24016G26KT P6SM SCT120
     FM250100 22010KT P6SM SKC=



000
FTUS41 KBTV 240523
TAFBTV
TAF
KBTV 240523Z 2406/2506 18010G18KT P6SM BKN120
     FM241200 22012G20KT P6SM BKN120
     FM241600 25015G28KT P6SM SCT120
     FM250000 20009KT P6SM SKC=



000
FTUS41 KBTV 232322
TAFBTV
TAF
KBTV 232322Z 2400/2424 19010KT P6SM SCT120
     FM241200 22010G16KT P6SM SCT120
     FM241600 25015G23KT P6SM SCT120=



000
FTUS41 KBTV 232322
TAFMPV
TAF
KMPV 232322Z 2400/2424 23005KT P6SM SCT120
     FM241200 27010G17KT P6SM SCT120
     FM241600 28014G25KT P6SM SCT120=



000
FTUS41 KBTV 232322
TAFSLK
TAF
KSLK 232322Z 2400/2424 23011KT P6SM SCT120 WS020/27050KT
     FM241200 24014G24KT P6SM SCT120=



000
FTUS41 KBTV 232322
TAFMSS
TAF
KMSS 232322Z 2400/2424 22014KT P6SM SCT120 WS020/26050KT
     FM241200 23014KT P6SM SCT120
     FM241600 24016G26KT P6SM SCT120=



000
FTUS41 KBTV 232322
TAFMSS
TAF
KMSS 232322Z 2400/2424 22014KT P6SM SCT120 WS020/26050KT
     FM241200 23014KT P6SM SCT120
     FM241600 24016G26KT P6SM SCT120=



000
FTUS41 KBTV 232322
TAFMPV
TAF
KMPV 232322Z 2400/2424 23005KT P6SM SCT120
     FM241200 27010G17KT P6SM SCT120
     FM241600 28014G25KT P6SM SCT120=



000
FTUS41 KBTV 232322
TAFBTV
TAF
KBTV 232322Z 2400/2424 19010KT P6SM SCT120
     FM241200 22010G16KT P6SM SCT120
     FM241600 25015G23KT P6SM SCT120=



000
FTUS41 KBTV 232322
TAFSLK
TAF
KSLK 232322Z 2400/2424 23011KT P6SM SCT120 WS020/27050KT
     FM241200 24014G24KT P6SM SCT120=



000
FTUS41 KBTV 231901 AAA
TAFBTV
TAF AMD
KBTV 231901Z 2319/2418 28009KT P6SM FEW070
     FM232100 24008G18KT P6SM FEW080 FEW100
     FM240000 20010KT P6SM FEW060 BKN080
     FM241200 19011G19KT P6SM FEW060 SCT080=



000
FTUS41 KBTV 231720
TAFSLK
TAF
KSLK 231720Z 2318/2418 26010G18KT P6SM FEW250
     FM240000 23008KT P6SM SCT040 BKN070
     FM241300 25012G20KT P6SM FEW100 SCT150=



000
FTUS41 KBTV 231720
TAFMSS
TAF
KMSS 231720Z 2318/2418 24012G20KT P6SM FEW150
     FM240000 23011KT P6SM SCT060 BKN120
     FM241200 24012G20KT P6SM FEW060 SCT120=



000
FTUS41 KBTV 231720
TAFBTV
TAF
KBTV 231720Z 2318/2418 31010G17KT P6SM FEW070
     FM232100 25010G20KT P6SM FEW080 FEW100
     FM240000 20010KT P6SM FEW060 BKN080
     FM241200 19011G19KT P6SM FEW060 SCT080=



000
FTUS41 KBTV 231720
TAFMPV
TAF
KMPV 231720Z 2318/2418 31011G20KT P6SM FEW250
     FM232300 22006KT P6SM FEW060 SCT090
     FM241400 27011G19KT P6SM FEW110 FEW160=



    US Dept of Commerce
    National Oceanic and Atmospheric Administration
    National Weather Service
    1325 East West Highway
    Silver Spring, MD 20910
    Page Author: NWS Internet Services Team
Disclaimer
Information Quality
Credits
Glossary
Privacy Policy
Freedom of Information Act (FOIA)
About Us
Career Opportunities